Maine-Soroa, Niger
Current Conditions -  °F | °C
As of 9:00 AM on Friday 24 Oct 2014 (Local Time) from FTTJ Reporting Station
Clear Clear  
Wind Chill: 86°   Ceiling: Unl
Heat Index: 99°   Visibility: 6mi
Dew Point: 79°   Wind: 7mph
Humidity: 79%   Direction: 300°WNW
Pressure: 29.91"   Gusts: NA
Location:  13.21°N, 12.03°E
Report Text: FTTJ 240800Z 30006KT CAVOK 30/26 Q1013 NOSIG
Loading
Personal Weather Stations






























Interactive Weather Map
Tropical Storm Tracking
New forecast layout! Learn more

10-Day Weather Forecast

Advertisements
Track Severe Weather on mobile